sensor_id;sensor_type;location;lat;lon;timestamp;pressure;altitude;pressure_sealevel;temperature
15544;BMP180;7873;52.230;12.856;2022-08-03T00:01:02;100949.09;;;23.78
15544;BMP180;7873;52.230;12.856;2022-08-03T00:03:28;100944.53;;;23.79
15544;BMP180;7873;52.230;12.856;2022-08-03T00:05:55;100941.84;;;23.79
15544;BMP180;7873;52.230;12.856;2022-08-03T00:08:22;100947.75;;;23.74
15544;BMP180;7873;52.230;12.856;2022-08-03T00:10:48;100945.91;;;23.75
15544;BMP180;7873;52.230;12.856;2022-08-03T00:13:16;100939.03;;;23.73
15544;BMP180;7873;52.230;12.856;2022-08-03T00:15:44;100942.28;;;23.60
15544;BMP180;7873;52.230;12.856;2022-08-03T00:18:10;100941.63;;;23.58
15544;BMP180;7873;52.230;12.856;2022-08-03T00:20:37;100933.91;;;23.55
15544;BMP180;7873;52.230;12.856;2022-08-03T00:23:04;100930.72;;;23.52
15544;BMP180;7873;52.230;12.856;2022-08-03T00:25:32;100931.38;;;23.54
15544;BMP180;7873;52.230;12.856;2022-08-03T00:27:59;100926.56;;;23.49
15544;BMP180;7873;52.230;12.856;2022-08-03T00:30:27;100929.59;;;23.46
15544;BMP180;7873;52.230;12.856;2022-08-03T00:32:54;100932.59;;;23.43
15544;BMP180;7873;52.230;12.856;2022-08-03T00:35:21;100937.81;;;23.45
15544;BMP180;7873;52.230;12.856;2022-08-03T00:37:47;100924.72;;;23.42
15544;BMP180;7873;52.230;12.856;2022-08-03T00:40:16;100924.72;;;23.42
15544;BMP180;7873;52.230;12.856;2022-08-03T00:42:48;100926.09;;;23.38
15544;BMP180;7873;52.230;12.856;2022-08-03T00:45:16;100916.38;;;23.37
15544;BMP180;7873;52.230;12.856;2022-08-03T00:47:44;100926.25;;;23.36
15544;BMP180;7873;52.230;12.856;2022-08-03T00:50:12;100913.03;;;23.35
15544;BMP180;7873;52.230;12.856;2022-08-03T00:52:39;100918.56;;;23.33
15544;BMP180;7873;52.230;12.856;2022-08-03T00:55:06;100914.34;;;23.31
15544;BMP180;7873;52.230;12.856;2022-08-03T00:57:33;100908.88;;;23.24
15544;BMP180;7873;52.230;12.856;2022-08-03T00:59:59;100906.19;;;23.24
15544;BMP180;7873;52.230;12.856;2022-08-03T01:02:26;100910.69;;;23.24
15544;BMP180;7873;52.230;12.856;2022-08-03T01:04:55;100908.53;;;23.19
15544;BMP180;7873;52.230;12.856;2022-08-03T01:07:29;100910.56;;;23.17
15544;BMP180;7873;52.230;12.856;2022-08-03T01:10:01;100904.34;;;23.17
15544;BMP180;7873;52.230;12.856;2022-08-03T01:12:34;100914.44;;;23.15
15544;BMP180;7873;52.230;12.856;2022-08-03T01:15:09;100912.91;;;23.12
15544;BMP180;7873;52.230;12.856;2022-08-03T01:17:44;100915.25;;;23.15
15544;BMP180;7873;52.230;12.856;2022-08-03T01:20:15;100906.19;;;23.16
15544;BMP180;7873;52.230;12.856;2022-08-03T01:23:23;100903.19;;;23.11
15544;BMP180;7873;52.230;12.856;2022-08-03T01:26:08;100897.47;;;23.06
15544;BMP180;7873;52.230;12.856;2022-08-03T01:29:03;100907.72;;;23.03
15544;BMP180;7873;52.230;12.856;2022-08-03T01:31:39;100910.06;;;23.06
15544;BMP180;7873;52.230;12.856;2022-08-03T01:34:09;100915.78;;;23.03
15544;BMP180;7873;52.230;12.856;2022-08-03T01:36:39;100912.56;;;23.07
15544;BMP180;7873;52.230;12.856;2022-08-03T01:39:10;100915.06;;;23.09
15544;BMP180;7873;52.230;12.856;2022-08-03T01:41:41;100912.56;;;23.07
15544;BMP180;7873;52.230;12.856;2022-08-03T01:44:11;100912.25;;;23.02
15544;BMP180;7873;52.230;12.856;2022-08-03T01:46:40;100900.50;;;23.03
15544;BMP180;7873;52.230;12.856;2022-08-03T01:49:10;100903.19;;;23.03
15544;BMP180;7873;52.230;12.856;2022-08-03T01:51:41;100904.00;;;23.04
15544;BMP180;7873;52.230;12.856;2022-08-03T01:54:09;100899.50;;;23.04
15544;BMP180;7873;52.230;12.856;2022-08-03T01:56:38;100895.44;;;23.08
15544;BMP180;7873;52.230;12.856;2022-08-03T01:59:06;100895.59;;;23.07
15544;BMP180;7873;52.230;12.856;2022-08-03T02:01:35;100900.97;;;23.07
15544;BMP180;7873;52.230;12.856;2022-08-03T02:04:05;100899.84;;;23.01
15544;BMP180;7873;52.230;12.856;2022-08-03T02:06:33;100894.47;;;23.01
15544;BMP180;7873;52.230;12.856;2022-08-03T02:09:02;100897.63;;;23.05
15544;BMP180;7873;52.230;12.856;2022-08-03T02:11:30;100898.50;;;23.05
15544;BMP180;7873;52.230;12.856;2022-08-03T02:13:59;100901.84;;;23.07
15544;BMP180;7873;52.230;12.856;2022-08-03T02:16:30;100898.13;;;23.08
15544;BMP180;7873;52.230;12.856;2022-08-03T02:18:57;100902.34;;;23.03
15544;BMP180;7873;52.230;12.856;2022-08-03T02:21:27;100893.31;;;22.96
15544;BMP180;7873;52.230;12.856;2022-08-03T02:23:55;100896.81;;;22.96
15544;BMP180;7873;52.230;12.856;2022-08-03T02:26:23;100894.81;;;22.98
15544;BMP180;7873;52.230;12.856;2022-08-03T02:28:53;100887.09;;;22.95
15544;BMP180;7873;52.230;12.856;2022-08-03T02:31:23;100895.66;;;22.99
15544;BMP180;7873;52.230;12.856;2022-08-03T02:33:52;100891.63;;;22.95
15544;BMP180;7873;52.230;12.856;2022-08-03T02:36:24;100904.22;;;22.94
15544;BMP180;7873;52.230;12.856;2022-08-03T02:38:54;100899.84;;;22.93
15544;BMP180;7873;52.230;12.856;2022-08-03T02:41:24;100891.63;;;22.95
15544;BMP180;7873;52.230;12.856;2022-08-03T02:43:53;100890.78;;;22.94
15544;BMP180;7873;52.230;12.856;2022-08-03T02:46:24;100900.50;;;22.95
15544;BMP180;7873;52.230;12.856;2022-08-03T02:48:54;100900.69;;;22.94
15544;BMP180;7873;52.230;12.856;2022-08-03T02:51:22;100901.88;;;22.91
15544;BMP180;7873;52.230;12.856;2022-08-03T02:53:50;100903.06;;;22.89
15544;BMP180;7873;52.230;12.856;2022-08-03T02:56:19;100909.94;;;22.91
15544;BMP180;7873;52.230;12.856;2022-08-03T02:58:47;100904.06;;;22.96
15544;BMP180;7873;52.230;12.856;2022-08-03T03:01:15;100899.50;;;22.96
15544;BMP180;7873;52.230;12.856;2022-08-03T03:03:43;100908.56;;;23.03
15544;BMP180;7873;52.230;12.856;2022-08-03T03:06:10;100910.41;;;23.03
15544;BMP180;7873;52.230;12.856;2022-08-03T03:08:38;100900.50;;;23.03
15544;BMP180;7873;52.230;12.856;2022-08-03T03:11:06;100908.56;;;23.03
15544;BMP180;7873;52.230;12.856;2022-08-03T03:13:35;100894.94;;;23.05
15544;BMP180;7873;52.230;12.856;2022-08-03T03:16:03;100905.03;;;23.03
15544;BMP180;7873;52.230;12.856;2022-08-03T03:18:32;100905.72;;;22.97
15544;BMP180;7873;52.230;12.856;2022-08-03T03:21:00;100894.81;;;22.98
15544;BMP180;7873;52.230;12.856;2022-08-03T03:23:28;100903.53;;;22.92
15544;BMP180;7873;52.230;12.856;2022-08-03T03:25:56;100891.63;;;22.95
15544;BMP180;7873;52.230;12.856;2022-08-03T03:28:24;100889.78;;;22.95
15544;BMP180;7873;52.230;12.856;2022-08-03T03:30:52;100891.78;;;22.93
15544;BMP180;7873;52.230;12.856;2022-08-03T03:33:19;100891.78;;;22.93
15544;BMP180;7873;52.230;12.856;2022-08-03T03:35:46;100907.75;;;22.95
15544;BMP180;7873;52.230;12.856;2022-08-03T03:38:13;100894.47;;;22.93
15544;BMP180;7873;52.230;12.856;2022-08-03T03:40:40;100890.97;;;22.93
15544;BMP180;7873;52.230;12.856;2022-08-03T03:43:08;100893.50;;;22.86
15544;BMP180;7873;52.230;12.856;2022-08-03T03:45:36;100902.22;;;22.88
15544;BMP180;7873;52.230;12.856;2022-08-03T03:48:05;100901.25;;;22.81
15544;BMP180;7873;52.230;12.856;2022-08-03T03:50:33;100899.88;;;22.85
15544;BMP180;7873;52.230;12.856;2022-08-03T03:53:01;100900.38;;;22.81
15544;BMP180;7873;52.230;12.856;2022-08-03T03:55:28;100900.56;;;22.79
15544;BMP180;7873;52.230;12.856;2022-08-03T03:57:55;100897.88;;;22.79
15544;BMP180;7873;52.230;12.856;2022-08-03T04:00:22;100894.19;;;22.80
15544;BMP180;7873;52.230;12.856;2022-08-03T04:02:49;100903.94;;;22.81
15544;BMP180;7873;52.230;12.856;2022-08-03T04:05:17;100893.31;;;22.96
15544;BMP180;7873;52.230;12.856;2022-08-03T04:08:06;100892.94;;;23.15
15544;BMP180;7873;52.230;12.856;2022-08-03T04:10:59;100889.59;;;23.13
15544;BMP180;7873;52.230;12.856;2022-08-03T04:13:31;100891.75;;;23.17
15544;BMP180;7873;52.230;12.856;2022-08-03T04:15:59;100889.03;;;23.25
15544;BMP180;7873;52.230;12.856;2022-08-03T04:18:28;100900.75;;;23.32
15544;BMP180;7873;52.230;12.856;2022-08-03T04:21:00;100900.91;;;23.39
15544;BMP180;7873;52.230;12.856;2022-08-03T04:23:30;100901.69;;;23.47
15544;BMP180;7873;52.230;12.856;2022-08-03T04:26:00;100903.84;;;23.52
15544;BMP180;7873;52.230;12.856;2022-08-03T04:28:28;100894.44;;;23.56
15544;BMP180;7873;52.230;12.856;2022-08-03T04:30:56;100902.81;;;23.61
15544;BMP180;7873;52.230;12.856;2022-08-03T04:33:25;100908.31;;;23.67
15544;BMP180;7873;52.230;12.856;2022-08-03T04:35:54;100904.63;;;23.68
15544;BMP180;7873;52.230;12.856;2022-08-03T04:38:25;100905.72;;;23.73
15544;BMP180;7873;52.230;12.856;2022-08-03T04:40:55;100908.06;;;23.76
15544;BMP180;7873;52.230;12.856;2022-08-03T04:43:23;100908.00;;;23.62
15544;BMP180;7873;52.230;12.856;2022-08-03T04:45:51;100911.69;;;23.61
15544;BMP180;7873;52.230;12.856;2022-08-03T04:48:18;100916.72;;;23.64
15544;BMP180;7873;52.230;12.856;2022-08-03T04:50:46;100915.19;;;23.70
15544;BMP180;7873;52.230;12.856;2022-08-03T04:53:13;100914.47;;;23.75
15544;BMP180;7873;52.230;12.856;2022-08-03T04:55:42;100911.13;;;23.82
15544;BMP180;7873;52.230;12.856;2022-08-03T04:58:09;100913.44;;;23.84
15544;BMP180;7873;52.230;12.856;2022-08-03T05:00:37;100906.03;;;23.86
15544;BMP180;7873;52.230;12.856;2022-08-03T05:03:03;100912.06;;;23.88
15544;BMP180;7873;52.230;12.856;2022-08-03T05:05:30;100913.75;;;23.89
15544;BMP180;7873;52.230;12.856;2022-08-03T05:07:57;100910.03;;;23.90
15544;BMP180;7873;52.230;12.856;2022-08-03T05:10:23;100911.72;;;23.91
15544;BMP180;7873;52.230;12.856;2022-08-03T05:12:51;100912.88;;;23.89
15544;BMP180;7873;52.230;12.856;2022-08-03T05:15:18;100920.31;;;23.87
15544;BMP180;7873;52.230;12.856;2022-08-03T05:17:45;100915.59;;;23.89
15544;BMP180;7873;52.230;12.856;2022-08-03T05:20:11;100913.09;;;23.87
15544;BMP180;7873;52.230;12.856;2022-08-03T05:22:38;100914.75;;;23.88
15544;BMP180;7873;52.230;12.856;2022-08-03T05:25:05;100913.75;;;23.89
15544;BMP180;7873;52.230;12.856;2022-08-03T05:27:32;100910.88;;;23.91
15544;BMP180;7873;52.230;12.856;2022-08-03T05:30:00;100909.88;;;23.92
15544;BMP180;7873;52.230;12.856;2022-08-03T05:32:27;100912.19;;;23.95
15544;BMP180;7873;52.230;12.856;2022-08-03T05:34:54;100917.38;;;23.96
15544;BMP180;7873;52.230;12.856;2022-08-03T05:37:21;100909.16;;;23.98
15544;BMP180;7873;52.230;12.856;2022-08-03T05:39:47;100909.16;;;23.98
15544;BMP180;7873;52.230;12.856;2022-08-03T05:42:14;100917.22;;;23.98
15544;BMP180;7873;52.230;12.856;2022-08-03T05:44:41;100920.00;;;23.82
15544;BMP180;7873;52.230;12.856;2022-08-03T05:47:09;100924.22;;;23.84
15544;BMP180;7873;52.230;12.856;2022-08-03T05:49:36;100922.91;;;24.03
15544;BMP180;7873;52.230;12.856;2022-08-03T05:52:03;100918.22;;;24.19
15544;BMP180;7873;52.230;12.856;2022-08-03T05:54:30;100926.38;;;24.11
15544;BMP180;7873;52.230;12.856;2022-08-03T05:56:56;100918.66;;;24.08
15544;BMP180;7873;52.230;12.856;2022-08-03T05:59:23;100924.69;;;24.10
15544;BMP180;7873;52.230;12.856;2022-08-03T06:01:50;100922.16;;;24.09
15544;BMP180;7873;52.230;12.856;2022-08-03T06:04:18;100927.25;;;24.04
15544;BMP180;7873;52.230;12.856;2022-08-03T06:06:45;100925.22;;;24.06
15544;BMP180;7873;52.230;12.856;2022-08-03T06:09:11;100930.97;;;24.03
15544;BMP180;7873;52.230;12.856;2022-08-03T06:11:39;100928.34;;;23.95
15544;BMP180;7873;52.230;12.856;2022-08-03T06:14:06;100927.97;;;23.98
15544;BMP180;7873;52.230;12.856;2022-08-03T06:16:33;100926.59;;;24.02
15544;BMP180;7873;52.230;12.856;2022-08-03T06:19:00;100925.81;;;23.93
15544;BMP180;7873;52.230;12.856;2022-08-03T06:21:28;100929.53;;;23.92
15544;BMP180;7873;52.230;12.856;2022-08-03T06:23:54;100927.13;;;23.97
15544;BMP180;7873;52.230;12.856;2022-08-03T06:26:25;100924.63;;;23.96
15544;BMP180;7873;52.230;12.856;2022-08-03T06:28:52;100925.47;;;23.96
15544;BMP180;7873;52.230;12.856;2022-08-03T06:31:19;100930.84;;;23.96
15544;BMP180;7873;52.230;12.856;2022-08-03T06:33:47;100928.16;;;23.96
15544;BMP180;7873;52.230;12.856;2022-08-03T06:36:13;100926.97;;;23.99
15544;BMP180;7873;52.230;12.856;2022-08-03T06:38:41;100928.50;;;23.93
15544;BMP180;7873;52.230;12.856;2022-08-03T06:41:08;100924.63;;;23.96
15544;BMP180;7873;52.230;12.856;2022-08-03T06:43:35;100924.75;;;24.02
15544;BMP180;7873;52.230;12.856;2022-08-03T06:46:02;100915.97;;;24.08
15544;BMP180;7873;52.230;12.856;2022-08-03T06:48:28;100921.47;;;24.15
15544;BMP180;7873;52.230;12.856;2022-08-03T06:50:55;100913.44;;;24.07
15544;BMP180;7873;52.230;12.856;2022-08-03T06:53:22;100914.88;;;23.95
15544;BMP180;7873;52.230;12.856;2022-08-03T06:55:50;100921.38;;;24.00
15544;BMP180;7873;52.230;12.856;2022-08-03T06:58:17;100918.38;;;24.03
15544;BMP180;7873;52.230;12.856;2022-08-03T07:00:43;100908.91;;;24.07
15544;BMP180;7873;52.230;12.856;2022-08-03T07:03:10;100905.84;;;24.10
15544;BMP180;7873;52.230;12.856;2022-08-03T07:05:37;100916.63;;;24.10
15544;BMP180;7873;52.230;12.856;2022-08-03T07:08:03;100908.72;;;24.09
15544;BMP180;7873;52.230;12.856;2022-08-03T07:10:30;100906.69;;;24.11
15544;BMP180;7873;52.230;12.856;2022-08-03T07:12:58;100909.22;;;24.12
15544;BMP180;7873;52.230;12.856;2022-08-03T07:15:25;100914.59;;;24.12
15544;BMP180;7873;52.230;12.856;2022-08-03T07:17:51;100917.28;;;24.12
15544;BMP180;7873;52.230;12.856;2022-08-03T07:20:18;100916.44;;;24.12
15544;BMP180;7873;52.230;12.856;2022-08-03T07:22:45;100913.56;;;24.13
15544;BMP180;7873;52.230;12.856;2022-08-03T07:25:11;100917.13;;;24.14
15544;BMP180;7873;52.230;12.856;2022-08-03T07:27:42;100913.56;;;24.13
15544;BMP180;7873;52.230;12.856;2022-08-03T07:30:11;100914.41;;;24.14
15544;BMP180;7873;52.230;12.856;2022-08-03T07:32:38;100918.78;;;24.15
15544;BMP180;7873;52.230;12.856;2022-08-03T07:35:06;100918.78;;;24.15
15544;BMP180;7873;52.230;12.856;2022-08-03T07:37:33;100919.44;;;24.17
15544;BMP180;7873;52.230;12.856;2022-08-03T07:40:02;100916.75;;;24.17
15544;BMP180;7873;52.230;12.856;2022-08-03T07:42:30;100916.56;;;24.18
15544;BMP180;7873;52.230;12.856;2022-08-03T07:44:57;100916.56;;;24.18
15544;BMP180;7873;52.230;12.856;2022-08-03T07:47:27;100911.16;;;24.18
15544;BMP180;7873;52.230;12.856;2022-08-03T07:49:54;100908.69;;;24.17
15544;BMP180;7873;52.230;12.856;2022-08-03T07:52:21;100915.72;;;24.18
15544;BMP180;7873;52.230;12.856;2022-08-03T07:55:07;100913.88;;;24.18
15544;BMP180;7873;52.230;12.856;2022-08-03T07:57:34;100917.41;;;24.19
15544;BMP180;7873;52.230;12.856;2022-08-03T08:00:02;100915.72;;;24.18
15544;BMP180;7873;52.230;12.856;2022-08-03T08:02:30;100912.19;;;24.17
15544;BMP180;7873;52.230;12.856;2022-08-03T08:04:57;100915.72;;;24.18
15544;BMP180;7873;52.230;12.856;2022-08-03T08:07:24;100913.03;;;24.18
15544;BMP180;7873;52.230;12.856;2022-08-03T08:09:51;100913.88;;;24.18
15544;BMP180;7873;52.230;12.856;2022-08-03T08:12:17;100918.41;;;24.18
15544;BMP180;7873;52.230;12.856;2022-08-03T08:14:44;100918.22;;;24.19
15544;BMP180;7873;52.230;12.856;2022-08-03T08:17:11;100912.03;;;24.19
15544;BMP180;7873;52.230;12.856;2022-08-03T08:19:39;100910.34;;;24.18
15544;BMP180;7873;52.230;12.856;2022-08-03T08:22:05;100911.38;;;24.17
15544;BMP180;7873;52.230;12.856;2022-08-03T08:24:32;100913.03;;;24.18
15544;BMP180;7873;52.230;12.856;2022-08-03T08:26:59;100913.88;;;24.18
15544;BMP180;7873;52.230;12.856;2022-08-03T08:29:26;100920.91;;;24.19
15544;BMP180;7873;52.230;12.856;2022-08-03T08:31:53;100911.00;;;24.20
15544;BMP180;7873;52.230;12.856;2022-08-03T08:34:19;100912.69;;;24.21
15544;BMP180;7873;52.230;12.856;2022-08-03T08:36:47;100909.50;;;24.17
15544;BMP180;7873;52.230;12.856;2022-08-03T08:39:14;100906.81;;;24.17
15544;BMP180;7873;52.230;12.856;2022-08-03T08:41:41;100902.44;;;24.16
15544;BMP180;7873;52.230;12.856;2022-08-03T08:44:07;100900.59;;;24.17
15544;BMP180;7873;52.230;12.856;2022-08-03T08:46:36;100911.38;;;24.17
15544;BMP180;7873;52.230;12.856;2022-08-03T08:49:05;100909.69;;;24.16
15544;BMP180;7873;52.230;12.856;2022-08-03T08:51:33;100895.03;;;24.18
15544;BMP180;7873;52.230;12.856;2022-08-03T08:54:06;100892.69;;;24.15
15544;BMP180;7873;52.230;12.856;2022-08-03T08:56:34;100905.97;;;24.17
15544;BMP180;7873;52.230;12.856;2022-08-03T08:59:01;100902.44;;;24.16
15544;BMP180;7873;52.230;12.856;2022-08-03T09:01:28;100896.03;;;24.17
15544;BMP180;7873;52.230;12.856;2022-08-03T09:03:55;100894.22;;;24.18
15544;BMP180;7873;52.230;12.856;2022-08-03T09:06:22;100898.72;;;24.17
15544;BMP180;7873;52.230;12.856;2022-08-03T09:08:49;100898.09;;;24.15
15544;BMP180;7873;52.230;12.856;2022-08-03T09:11:20;100898.09;;;24.15
15544;BMP180;7873;52.230;12.856;2022-08-03T09:13:48;100898.09;;;24.15
15544;BMP180;7873;52.230;12.856;2022-08-03T09:16:16;100900.59;;;24.17
15544;BMP180;7873;52.230;12.856;2022-08-03T09:18:45;100898.72;;;24.17
15544;BMP180;7873;52.230;12.856;2022-08-03T09:21:20;100895.03;;;24.18
15544;BMP180;7873;52.230;12.856;2022-08-03T09:23:49;100891.69;;;24.16
15544;BMP180;7873;52.230;12.856;2022-08-03T09:26:22;100891.88;;;24.15
15544;BMP180;7873;52.230;12.856;2022-08-03T09:28:56;100888.34;;;24.14
15544;BMP180;7873;52.230;12.856;2022-08-03T09:31:30;100899.75;;;24.16
15544;BMP180;7873;52.230;12.856;2022-08-03T09:33:57;100893.19;;;24.19
15544;BMP180;7873;52.230;12.856;2022-08-03T09:36:40;100895.03;;;24.18
15544;BMP180;7873;52.230;12.856;2022-08-03T09:39:08;100895.88;;;24.19
15544;BMP180;7873;52.230;12.856;2022-08-03T09:41:39;100885.47;;;24.16
15544;BMP180;7873;52.230;12.856;2022-08-03T09:44:06;100896.41;;;24.14
15544;BMP180;7873;52.230;12.856;2022-08-03T09:46:47;100889.34;;;24.13
15544;BMP180;7873;52.230;12.856;2022-08-03T09:49:14;100881.28;;;24.13
15544;BMP180;7873;52.230;12.856;2022-08-03T09:51:41;100875.72;;;24.15
15544;BMP180;7873;52.230;12.856;2022-08-03T09:54:08;100872.91;;;24.08
15544;BMP180;7873;52.230;12.856;2022-08-03T09:56:41;100878.22;;;24.16
15544;BMP180;7873;52.230;12.856;2022-08-03T09:59:08;100884.75;;;24.22
15544;BMP180;7873;52.230;12.856;2022-08-03T10:01:36;100867.38;;;24.24
15544;BMP180;7873;52.230;12.856;2022-08-03T10:04:04;100866.69;;;24.30
15544;BMP180;7873;52.230;12.856;2022-08-03T10:06:31;100865.28;;;24.34
15544;BMP180;7873;52.230;12.856;2022-08-03T10:09:05;100862.41;;;24.36
15544;BMP180;7873;52.230;12.856;2022-08-03T10:11:33;100863.09;;;24.38
15544;BMP180;7873;52.230;12.856;2022-08-03T10:14:03;100869.66;;;24.35
15544;BMP180;7873;52.230;12.856;2022-08-03T10:16:33;100866.59;;;24.38
15544;BMP180;7873;52.230;12.856;2022-08-03T10:19:00;100859.53;;;24.37
15544;BMP180;7873;52.230;12.856;2022-08-03T10:21:28;100859.38;;;24.39
15544;BMP180;7873;52.230;12.856;2022-08-03T10:23:58;100867.06;;;24.42
15544;BMP180;7873;52.230;12.856;2022-08-03T10:26:30;100859.44;;;24.45
15544;BMP180;7873;52.230;12.856;2022-08-03T10:28:58;100856.09;;;24.43
15544;BMP180;7873;52.230;12.856;2022-08-03T10:31:32;100861.88;;;24.40
15544;BMP180;7873;52.230;12.856;2022-08-03T10:34:01;100859.38;;;24.39
15544;BMP180;7873;52.230;12.856;2022-08-03T10:36:32;100851.47;;;24.37
15544;BMP180;7873;52.230;12.856;2022-08-03T10:39:00;100841.72;;;24.36
15544;BMP180;7873;52.230;12.856;2022-08-03T10:41:31;100849.63;;;24.38
15544;BMP180;7873;52.230;12.856;2022-08-03T10:44:02;100849.41;;;24.39
15544;BMP180;7873;52.230;12.856;2022-08-03T10:46:32;100844.25;;;24.38
15544;BMP180;7873;52.230;12.856;2022-08-03T10:48:59;100841.34;;;24.39
15544;BMP180;7873;52.230;12.856;2022-08-03T10:51:26;100840.97;;;24.42
15544;BMP180;7873;52.230;12.856;2022-08-03T10:53:56;100832.09;;;24.42
15544;BMP180;7873;52.230;12.856;2022-08-03T10:56:39;100838.13;;;24.44
15544;BMP180;7873;52.230;12.856;2022-08-03T10:59:55;100830.59;;;24.39
15544;BMP180;7873;52.230;12.856;2022-08-03T11:05:44;100837.19;;;24.37
15544;BMP180;7873;52.230;12.856;2022-08-03T11:08:22;100833.47;;;24.38
15544;BMP180;7873;52.230;12.856;2022-08-03T11:10:49;100829.75;;;24.39
15544;BMP180;7873;52.230;12.856;2022-08-03T11:13:17;100824.56;;;24.37
15544;BMP180;7873;52.230;12.856;2022-08-03T11:15:46;100829.94;;;24.37
15544;BMP180;7873;52.230;12.856;2022-08-03T11:18:16;100821.03;;;24.37
15544;BMP180;7873;52.230;12.856;2022-08-03T11:20:47;100828.25;;;24.36
15544;BMP180;7873;52.230;12.856;2022-08-03T11:23:16;100828.09;;;24.38
15544;BMP180;7873;52.230;12.856;2022-08-03T11:26:11;100824.56;;;24.37
15544;BMP180;7873;52.230;12.856;2022-08-03T11:28:39;100827.88;;;24.39
15544;BMP180;7873;52.230;12.856;2022-08-03T11:31:42;100822.50;;;24.39
15544;BMP180;7873;52.230;12.856;2022-08-03T11:34:11;100822.13;;;24.42
15544;BMP180;7873;52.230;12.856;2022-08-03T11:39:44;100815.34;;;24.46
15544;BMP180;7873;52.230;12.856;2022-08-03T11:42:40;100817.22;;;24.46
15544;BMP180;7873;52.230;12.856;2022-08-03T11:45:08;100809.97;;;24.46
15544;BMP180;7873;52.230;12.856;2022-08-03T11:47:38;100806.47;;;24.46
15544;BMP180;7873;52.230;12.856;2022-08-03T11:50:07;100807.28;;;24.46
15544;BMP180;7873;52.230;12.856;2022-08-03T11:52:37;100818.03;;;24.46
15544;BMP180;7873;52.230;12.856;2022-08-03T11:55:08;100806.47;;;24.46
15544;BMP180;7873;52.230;12.856;2022-08-03T11:57:35;100811.84;;;24.46
15544;BMP180;7873;52.230;12.856;2022-08-03T12:00:03;100807.28;;;24.46
15544;BMP180;7873;52.230;12.856;2022-08-03T12:02:56;100811.47;;;24.49
15544;BMP180;7873;52.230;12.856;2022-08-03T12:05:37;100818.03;;;24.46
15544;BMP180;7873;52.230;12.856;2022-08-03T12:08:04;100814.34;;;24.47
15544;BMP180;7873;52.230;12.856;2022-08-03T12:10:32;100807.97;;;24.48
15544;BMP180;7873;52.230;12.856;2022-08-03T12:13:00;100805.06;;;24.50
15544;BMP180;7873;52.230;12.856;2022-08-03T12:15:28;100804.72;;;24.53
15544;BMP180;7873;52.230;12.856;2022-08-03T12:17:56;100799.53;;;24.51
15544;BMP180;7873;52.230;12.856;2022-08-03T12:20:25;100802.38;;;24.50
15544;BMP180;7873;52.230;12.856;2022-08-03T12:22:53;100788.56;;;24.53
15544;BMP180;7873;52.230;12.856;2022-08-03T12:25:22;100797.66;;;24.52
15544;BMP180;7873;52.230;12.856;2022-08-03T12:27:49;100793.13;;;24.52
15544;BMP180;7873;52.230;12.856;2022-08-03T12:30:16;100782.16;;;24.54
15544;BMP180;7873;52.230;12.856;2022-08-03T12:32:43;100783.19;;;24.53
15544;BMP180;7873;52.230;12.856;2022-08-03T12:35:20;100785.50;;;24.56
15544;BMP180;7873;52.230;12.856;2022-08-03T12:37:48;100787.66;;;24.60
15544;BMP180;7873;52.230;12.856;2022-08-03T12:40:23;100777.16;;;24.65
15544;BMP180;7873;52.230;12.856;2022-08-03T12:42:50;100786.53;;;24.69
15544;BMP180;7873;52.230;12.856;2022-08-03T12:45:17;100780.97;;;24.71
15544;BMP180;7873;52.230;12.856;2022-08-03T12:47:55;100775.75;;;24.69
15544;BMP180;7873;52.230;12.856;2022-08-03T12:50:23;100774.72;;;24.70
15544;BMP180;7873;52.230;12.856;2022-08-03T12:52:50;100771.84;;;24.72
15544;BMP180;7873;52.230;12.856;2022-08-03T12:55:20;100772.72;;;24.72
15544;BMP180;7873;52.230;12.856;2022-08-03T12:57:47;100773.34;;;24.74
15544;BMP180;7873;52.230;12.856;2022-08-03T13:00:16;100778.38;;;24.77
15544;BMP180;7873;52.230;12.856;2022-08-03T13:02:43;100770.72;;;24.81
15544;BMP180;7873;52.230;12.856;2022-08-03T13:05:10;100767.84;;;24.82
15544;BMP180;7873;52.230;12.856;2022-08-03T13:07:40;100768.88;;;24.81
15544;BMP180;7873;52.230;12.856;2022-08-03T13:10:07;100765.34;;;24.81
15544;BMP180;7873;52.230;12.856;2022-08-03T13:12:46;100765.16;;;24.82
15544;BMP180;7873;52.230;12.856;2022-08-03T13:15:14;100770.56;;;24.82
15544;BMP180;7873;52.230;12.856;2022-08-03T13:17:42;100768.50;;;24.84
15544;BMP180;7873;52.230;12.856;2022-08-03T13:20:09;100765.44;;;24.87
15544;BMP180;7873;52.230;12.856;2022-08-03T13:22:36;100766.28;;;24.88
15544;BMP180;7873;52.230;12.856;2022-08-03T13:25:04;100767.31;;;24.87
15544;BMP180;7873;52.230;12.856;2022-08-03T13:27:31;100760.25;;;24.86
15544;BMP180;7873;52.230;12.856;2022-08-03T13:30:00;100764.41;;;24.88
15544;BMP180;7873;52.230;12.856;2022-08-03T13:32:29;100769.41;;;24.91
15544;BMP180;7873;52.230;12.856;2022-08-03T13:34:56;100763.00;;;24.92
15544;BMP180;7873;52.230;12.856;2022-08-03T13:37:24;100755.56;;;24.94
15544;BMP180;7873;52.230;12.856;2022-08-03T13:39:53;100752.69;;;24.96
15544;BMP180;7873;52.230;12.856;2022-08-03T13:42:22;100754.19;;;24.98
15544;BMP180;7873;52.230;12.856;2022-08-03T13:44:49;100751.28;;;25.00
15544;BMP180;7873;52.230;12.856;2022-08-03T13:47:18;100753.16;;;24.99
15544;BMP180;7873;52.230;12.856;2022-08-03T13:49:45;100756.50;;;25.01
15544;BMP180;7873;52.230;12.856;2022-08-03T13:52:13;100752.56;;;25.04
15544;BMP180;7873;52.230;12.856;2022-08-03T13:54:40;100747.00;;;25.05
15544;BMP180;7873;52.230;12.856;2022-08-03T13:57:07;100748.28;;;25.09
15544;BMP180;7873;52.230;12.856;2022-08-03T13:59:36;100743.53;;;25.11
15544;BMP180;7873;52.230;12.856;2022-08-03T14:02:03;100740.03;;;25.11
15544;BMP180;7873;52.230;12.856;2022-08-03T14:04:32;100740.84;;;25.11
15544;BMP180;7873;52.230;12.856;2022-08-03T14:06:59;100739.81;;;25.12
15544;BMP180;7873;52.230;12.856;2022-08-03T14:09:25;100744.00;;;25.15
15544;BMP180;7873;52.230;12.856;2022-08-03T14:11:52;100740.78;;;25.19
15544;BMP180;7873;52.230;12.856;2022-08-03T14:14:19;100740.56;;;25.21